Time;durP1;ratioP1;P1;durP2;ratioP2;P2;SDS_P1;SDS_P2;PMS_P1;PMS_P2;Temp;Humidity;BMP_temperature;BMP_pressure;BME280_temperature;BME280_humidity;BME280_pressure;Samples;Min_cycle;Max_cycle;Signal;HPM_P1;HPM_P2
2021/03/14 00:01:15;;;;;;;1.08;1.00;;;4.20;82.30;;;;;;5019962;28;20026;-67
2021/03/14 00:03:41;;;;;;;1.92;0.95;;;4.20;82.30;;;;;;5018398;28;20029;-66
2021/03/14 00:06:07;;;;;;;1.20;1.00;;;4.20;82.40;;;;;;5019269;28;20768;-67
2021/03/14 00:08:34;;;;;;;0.98;0.82;;;4.20;82.50;;;;;;5019603;28;20026;-66
2021/03/14 00:11:05;;;;;;;1.20;0.90;;;4.20;82.60;;;;;;5019894;28;20389;-66
2021/03/14 00:13:38;;;;;;;0.98;0.98;;;4.20;82.70;;;;;;5018610;28;20456;-66
2021/03/14 00:16:06;;;;;;;1.63;1.17;;;4.20;82.80;;;;;;5036146;28;20017;-65
2021/03/14 00:18:43;;;;;;;2.80;1.25;;;4.20;82.80;;;;;;5035136;28;20022;-65
2021/03/14 00:21:10;;;;;;;3.58;1.48;;;4.20;83.00;;;;;;5017251;28;20078;-67
2021/03/14 00:23:36;;;;;;;1.10;1.00;;;4.20;83.00;;;;;;5048548;28;20041;-65
2021/03/14 00:26:03;;;;;;;2.15;1.27;;;4.30;83.30;;;;;;5020775;28;20025;-65
2021/03/14 00:28:29;;;;;;;2.22;1.10;;;4.30;83.30;;;;;;5033963;28;20385;-66
2021/03/14 00:30:55;;;;;;;1.33;1.27;;;4.30;83.30;;;;;;5016810;28;20021;-67
2021/03/14 00:33:22;;;;;;;2.60;1.30;;;4.30;83.30;;;;;;5019152;28;20056;-66
2021/03/14 00:35:47;;;;;;;1.35;1.25;;;4.40;83.90;;;;;;5018772;28;20025;-67
2021/03/14 00:38:13;;;;;;;2.50;1.10;;;4.40;83.50;;;;;;5018045;28;20044;-67
2021/03/14 00:40:40;;;;;;;1.30;1.20;;;4.40;83.40;;;;;;5022383;28;20100;-67
2021/03/14 00:43:06;;;;;;;1.65;1.25;;;4.40;83.40;;;;;;5018831;28;20071;-67
2021/03/14 00:45:34;;;;;;;2.03;1.17;;;4.40;83.40;;;;;;5017759;28;20053;-67
2021/03/14 00:48:03;;;;;;;1.58;1.20;;;4.50;83.50;;;;;;5018379;28;20128;-66
2021/03/14 00:50:33;;;;;;;1.38;1.13;;;4.50;83.30;;;;;;5017710;28;20022;-68
2021/03/14 00:52:59;;;;;;;1.70;1.33;;;4.50;83.30;;;;;;5017910;28;20083;-68
2021/03/14 00:55:24;;;;;;;1.20;1.10;;;4.50;83.20;;;;;;5016650;28;20025;-65
2021/03/14 00:57:50;;;;;;;4.75;1.08;;;4.60;83.30;;;;;;5017468;28;20029;-68
2021/03/14 01:00:16;;;;;;;1.73;1.20;;;4.50;83.10;;;;;;5018187;28;20025;-68
2021/03/14 01:02:42;;;;;;;3.53;1.05;;;4.60;83.40;;;;;;5017723;28;20025;-68
2021/03/14 01:05:08;;;;;;;3.20;1.00;;;4.60;83.20;;;;;;5017724;28;20083;-68
2021/03/14 01:07:34;;;;;;;2.20;1.13;;;4.60;83.20;;;;;;5017863;28;20047;-68
2021/03/14 01:09:59;;;;;;;0.98;0.98;;;4.60;83.30;;;;;;5024047;28;20399;-67
2021/03/14 01:12:25;;;;;;;1.75;0.90;;;4.50;83.30;;;;;;5017833;28;20043;-69
2021/03/14 01:14:50;;;;;;;0.77;0.77;;;4.50;83.30;;;;;;5016643;28;20397;-68
2021/03/14 01:17:16;;;;;;;1.77;0.82;;;4.50;83.30;;;;;;5018060;28;20032;-69
2021/03/14 01:19:42;;;;;;;1.83;0.90;;;4.50;83.20;;;;;;5017991;28;20384;-69
2021/03/14 01:22:07;;;;;;;1.52;0.90;;;4.40;83.00;;;;;;5017141;28;20034;-68
2021/03/14 01:24:33;;;;;;;1.88;1.00;;;4.40;83.10;;;;;;5013450;28;20029;-68
2021/03/14 01:26:59;;;;;;;1.30;0.70;;;4.40;83.20;;;;;;5016550;28;20124;-68
2021/03/14 01:29:24;;;;;;;0.70;0.70;;;4.40;83.10;;;;;;5021511;28;20030;-68
2021/03/14 01:31:50;;;;;;;1.23;0.90;;;4.30;83.20;;;;;;5033300;28;20116;-68
2021/03/14 01:34:16;;;;;;;0.65;0.65;;;4.30;83.30;;;;;;5017939;28;20381;-68
2021/03/14 01:36:41;;;;;;;1.58;0.73;;;4.30;83.30;;;;;;5016740;28;20022;-68
2021/03/14 01:39:07;;;;;;;0.80;0.80;;;4.30;83.20;;;;;;5016316;28;20034;-67
2021/03/14 01:41:33;;;;;;;2.78;1.10;;;4.30;83.30;;;;;;5032805;28;20021;-67
2021/03/14 01:43:59;;;;;;;2.60;0.80;;;4.20;83.40;;;;;;5015697;28;20056;-69
2021/03/14 01:46:26;;;;;;;0.98;0.80;;;4.20;83.30;;;;;;5016915;28;20055;-69
2021/03/14 01:48:53;;;;;;;1.67;0.75;;;4.20;83.30;;;;;;5016583;28;20528;-68
2021/03/14 01:51:18;;;;;;;3.20;0.70;;;4.20;83.30;;;;;;5016792;28;20037;-68
2021/03/14 01:53:45;;;;;;;1.60;1.02;;;4.20;83.30;;;;;;5015519;28;20029;-68
2021/03/14 01:56:11;;;;;;;1.55;0.70;;;4.20;83.40;;;;;;5015482;28;20087;-67
2021/03/14 01:58:39;;;;;;;0.80;0.80;;;4.10;83.40;;;;;;5016713;28;20036;-68
2021/03/14 02:01:05;;;;;;;1.05;0.80;;;4.10;83.50;;;;;;5016657;28;20045;-67
2021/03/14 02:03:31;;;;;;;0.70;0.70;;;4.00;83.40;;;;;;5016641;28;20683;-68
2021/03/14 02:05:56;;;;;;;1.73;0.90;;;4.00;83.50;;;;;;5016051;28;20030;-67
2021/03/14 02:08:22;;;;;;;0.85;0.85;;;4.00;83.60;;;;;;5016848;28;20091;-68
2021/03/14 02:10:51;;;;;;;0.98;0.98;;;4.00;83.60;;;;;;5007707;28;20065;-68
2021/03/14 02:13:22;;;;;;;1.50;0.80;;;4.00;83.70;;;;;;5034340;28;20045;-67
2021/03/14 02:15:58;;;;;;;1.13;0.73;;;4.00;83.80;;;;;;5016027;28;20311;-68
2021/03/14 02:18:28;;;;;;;1.00;0.90;;;4.00;83.80;;;;;;5033938;28;20059;-68
2021/03/14 02:20:55;;;;;;;2.10;0.90;;;4.00;83.90;;;;;;5016496;28;20044;-68
2021/03/14 02:23:21;;;;;;;2.13;0.80;;;4.00;83.90;;;;;;5016071;28;20124;-67
2021/03/14 02:26:33;;;;;;;1.48;0.77;;;3.90;83.90;;;;;;5012864;28;20056;-67
2021/03/14 02:28:59;;;;;;;1.75;1.13;;;3.90;84.00;;;;;;4942454;28;20031;-67
2021/03/14 02:31:27;;;;;;;1.00;0.90;;;3.90;84.30;;;;;;4999827;28;20057;-67
2021/03/14 02:34:05;;;;;;;1.55;0.90;;;3.90;84.10;;;;;;5013931;28;20075;-67
2021/03/14 02:36:34;;;;;;;2.85;0.73;;;3.90;84.00;;;;;;5015845;28;20030;-67
2021/03/14 02:39:01;;;;;;;1.33;0.82;;;3.90;83.90;;;;;;5013898;28;20055;-68
2021/03/14 02:41:27;;;;;;;1.73;0.70;;;3.90;83.90;;;;;;5031813;28;20112;-68
2021/03/14 02:43:54;;;;;;;0.88;0.70;;;3.90;84.00;;;;;;5015333;28;20097;-68
2021/03/14 02:46:21;;;;;;;0.60;0.60;;;3.90;84.00;;;;;;5015841;28;20083;-68
2021/03/14 02:48:48;;;;;;;0.70;0.60;;;3.80;83.90;;;;;;5016242;28;20039;-67
2021/03/14 02:51:14;;;;;;;1.00;0.63;;;3.90;84.00;;;;;;5016023;28;20025;-68
2021/03/14 02:53:42;;;;;;;0.50;0.50;;;3.80;83.80;;;;;;5015376;28;20044;-68
2021/03/14 02:56:08;;;;;;;0.57;0.40;;;3.80;84.00;;;;;;5012828;28;20029;-68
2021/03/14 02:58:38;;;;;;;0.60;0.60;;;3.70;83.90;;;;;;5015584;28;20091;-68
2021/03/14 03:01:06;;;;;;;0.60;0.60;;;3.70;84.10;;;;;;5016358;28;20484;-66
2021/03/14 03:03:32;;;;;;;0.50;0.50;;;3.60;84.00;;;;;;5015320;28;20032;-67
2021/03/14 03:06:00;;;;;;;0.50;0.50;;;3.60;84.10;;;;;;5015127;28;20117;-68
2021/03/14 03:08:27;;;;;;;0.52;0.52;;;3.60;84.20;;;;;;5015577;28;20041;-67
2021/03/14 03:10:54;;;;;;;0.45;0.45;;;3.50;84.20;;;;;;5014155;28;20116;-68
2021/03/14 03:13:20;;;;;;;1.10;0.50;;;3.50;84.30;;;;;;5015089;28;20044;-67
2021/03/14 03:15:47;;;;;;;0.40;0.40;;;3.50;84.10;;;;;;5015237;28;20113;-68
2021/03/14 03:18:14;;;;;;;1.63;0.50;;;3.40;84.10;;;;;;5015135;28;20071;-67
2021/03/14 03:20:40;;;;;;;1.08;0.60;;;3.30;84.00;;;;;;5029393;28;20029;-67
2021/03/14 03:23:06;;;;;;;1.05;0.60;;;3.30;84.10;;;;;;5014587;28;20053;-68
2021/03/14 03:25:31;;;;;;;0.80;0.70;;;3.30;84.30;;;;;;5016873;28;20569;-67
2021/03/14 03:27:57;;;;;;;0.50;0.50;;;3.30;84.50;;;;;;5016654;28;20041;-67
2021/03/14 03:30:26;;;;;;;0.65;0.50;;;3.30;84.30;;;;;;5014592;28;20113;-67
2021/03/14 03:32:52;;;;;;;0.57;0.50;;;3.30;84.30;;;;;;5017051;28;20029;-69
2021/03/14 03:35:19;;;;;;;0.50;0.50;;;3.30;84.20;;;;;;5022671;28;20109;-67
2021/03/14 03:37:46;;;;;;;0.60;0.60;;;3.30;84.20;;;;;;5039071;28;20025;-68
2021/03/14 03:40:15;;;;;;;1.38;0.60;;;3.20;84.20;;;;;;5038711;28;20029;-67
2021/03/14 03:42:46;;;;;;;0.52;0.52;;;3.20;84.20;;;;;;5034755;28;20106;-68
2021/03/14 03:45:12;;;;;;;0.70;0.70;;;3.20;84.40;;;;;;5035998;28;20120;-67
2021/03/14 03:47:42;;;;;;;1.05;0.90;;;3.20;84.40;;;;;;5034871;28;20037;-68
2021/03/14 03:50:09;;;;;;;0.70;0.70;;;3.20;84.60;;;;;;5034910;28;20033;-68
2021/03/14 03:52:36;;;;;;;2.63;1.30;;;3.20;84.50;;;;;;5017907;28;20055;-68
2021/03/14 03:55:02;;;;;;;2.22;1.25;;;3.30;84.50;;;;;;5010619;28;20029;-67
2021/03/14 03:57:28;;;;;;;2.53;1.40;;;3.30;84.60;;;;;;5017902;28;20080;-68
2021/03/14 03:59:54;;;;;;;3.97;1.90;;;3.30;85.00;;;;;;5018902;28;20421;-68
2021/03/14 04:02:23;;;;;;;6.57;2.35;;;3.40;84.60;;;;;;5017924;28;20029;-68
2021/03/14 04:04:50;;;;;;;4.32;1.90;;;3.40;84.60;;;;;;5034025;28;20026;-69
2021/03/14 04:07:16;;;;;;;4.72;2.70;;;3.40;84.30;;;;;;5017666;28;20040;-67
2021/03/14 04:09:44;;;;;;;10.40;2.45;;;3.50;84.50;;;;;;5015787;28;20030;-68
2021/03/14 04:12:10;;;;;;;4.40;2.22;;;3.50;84.50;;;;;;5017947;28;20030;-68
2021/03/14 04:14:36;;;;;;;4.30;2.65;;;3.50;84.50;;;;;;5026229;28;20033;-68
2021/03/14 04:17:05;;;;;;;2.92;2.38;;;3.60;84.50;;;;;;5018012;28;20083;-68
2021/03/14 04:19:34;;;;;;;5.53;2.00;;;3.60;84.40;;;;;;5017730;28;20037;-68
2021/03/14 04:22:01;;;;;;;5.38;2.22;;;3.60;84.30;;;;;;5034902;28;20025;-68
2021/03/14 04:24:29;;;;;;;6.03;2.20;;;3.60;84.20;;;;;;5011753;28;20029;-68
2021/03/14 04:26:56;;;;;;;2.97;2.10;;;3.70;84.30;;;;;;5008999;28;20029;-69
2021/03/14 04:29:22;;;;;;;7.47;2.83;;;3.60;84.20;;;;;;5017604;28;20057;-68
2021/03/14 04:31:51;;;;;;;5.07;2.20;;;3.60;84.10;;;;;;5017147;28;20029;-68
2021/03/14 04:34:19;;;;;;;3.28;1.83;;;3.70;84.20;;;;;;5016439;28;20025;-68
2021/03/14 04:36:47;;;;;;;5.30;2.45;;;3.70;84.20;;;;;;5017779;28;20025;-68
2021/03/14 04:39:14;;;;;;;5.68;2.38;;;3.60;84.20;;;;;;5012443;28;20033;-68
2021/03/14 04:41:42;;;;;;;4.35;2.30;;;3.60;84.10;;;;;;5014020;28;20032;-67
2021/03/14 04:44:09;;;;;;;3.72;2.40;;;3.70;84.20;;;;;;5032407;28;20116;-69
2021/03/14 04:46:35;;;;;;;4.60;2.10;;;3.60;84.20;;;;;;5016756;28;20027;-68
2021/03/14 04:49:01;;;;;;;2.40;2.10;;;3.60;84.20;;;;;;5017503;28;20065;-68
2021/03/14 04:51:29;;;;;;;4.70;2.40;;;3.60;84.00;;;;;;5017233;28;20048;-68
2021/03/14 04:53:57;;;;;;;2.15;1.70;;;3.60;84.10;;;;;;5033548;28;20060;-68
2021/03/14 04:56:24;;;;;;;3.95;2.00;;;3.60;84.00;;;;;;5011205;28;20113;-69
2021/03/14 04:58:51;;;;;;;2.45;1.88;;;3.60;84.10;;;;;;5013224;28;20025;-66
2021/03/14 05:01:21;;;;;;;7.68;2.00;;;3.60;84.10;;;;;;5016768;28;20034;-67
2021/03/14 05:03:51;;;;;;;2.15;1.80;;;3.60;84.10;;;;;;5017575;28;20064;-66
2021/03/14 05:06:20;;;;;;;6.53;2.88;;;3.60;84.00;;;;;;5016683;28;20091;-67
2021/03/14 05:08:47;;;;;;;2.97;1.75;;;3.60;83.90;;;;;;5016881;28;20045;-65
2021/03/14 05:11:20;;;;;;;3.38;1.80;;;3.60;83.80;;;;;;5016737;28;20032;-67
2021/03/14 05:13:49;;;;;;;4.47;1.80;;;3.60;83.90;;;;;;5029000;28;20034;-66
2021/03/14 05:16:16;;;;;;;6.47;2.50;;;3.60;84.00;;;;;;5015932;28;20370;-66
2021/03/14 05:18:43;;;;;;;2.17;1.77;;;3.60;83.90;;;;;;5033277;28;20041;-66
2021/03/14 05:21:10;;;;;;;4.38;1.67;;;3.60;84.00;;;;;;5012682;28;20137;-66
2021/03/14 05:23:37;;;;;;;5.07;1.75;;;3.70;84.40;;;;;;5028054;28;20041;-66
2021/03/14 05:26:04;;;;;;;5.97;2.22;;;3.70;83.90;;;;;;5014542;28;20032;-66
2021/03/14 05:28:31;;;;;;;1.80;1.70;;;3.70;83.90;;;;;;5020947;28;20025;-66
2021/03/14 05:30:57;;;;;;;7.93;2.30;;;3.80;83.70;;;;;;5016605;28;20053;-68
2021/03/14 05:33:22;;;;;;;4.47;1.90;;;3.80;83.70;;;;;;5016858;28;20049;-66
2021/03/14 05:35:48;;;;;;;5.38;2.50;;;3.80;83.60;;;;;;5017016;28;20029;-66
2021/03/14 05:43:17;;;;;;;4.18;2.22;;;3.80;83.50;;;;;;5050022;28;20475;-68
2021/03/14 05:45:43;;;;;;;4.07;2.30;;;3.80;83.50;;;;;;5032900;28;20021;-68
2021/03/14 05:48:08;;;;;;;3.42;2.20;;;3.80;83.40;;;;;;5041725;28;20099;-67
2021/03/14 05:50:34;;;;;;;5.72;2.42;;;3.80;83.40;;;;;;5053075;28;20025;-67
2021/03/14 05:53:01;;;;;;;5.25;2.40;;;3.90;83.50;;;;;;5052625;28;20028;-67
2021/03/14 05:55:27;;;;;;;5.00;2.63;;;3.90;83.40;;;;;;5049768;28;20028;-67
2021/03/14 05:57:55;;;;;;;7.57;3.58;;;3.90;83.50;;;;;;5053320;28;20024;-67
2021/03/14 06:00:27;;;;;;;4.93;2.90;;;3.90;83.50;;;;;;5053271;28;20479;-68
2021/03/14 06:02:55;;;;;;;8.40;2.25;;;3.90;83.40;;;;;;5048327;28;20111;-67
2021/03/14 06:05:21;;;;;;;6.90;2.65;;;3.90;83.90;;;;;;5046238;28;20040;-67
2021/03/14 06:07:47;;;;;;;3.90;2.60;;;3.90;83.40;;;;;;5053505;28;20146;-68
2021/03/14 06:10:15;;;;;;;6.15;2.92;;;3.90;83.40;;;;;;5052530;28;20376;-68
2021/03/14 06:12:41;;;;;;;3.42;2.58;;;3.90;83.50;;;;;;5053407;28;20504;-67
2021/03/14 06:15:07;;;;;;;11.40;3.92;;;3.80;83.50;;;;;;5052548;28;20043;-67
2021/03/14 06:17:35;;;;;;;2.83;2.40;;;3.80;83.70;;;;;;5052965;28;20036;-67
2021/03/14 06:20:01;;;;;;;5.18;2.47;;;3.80;83.70;;;;;;5042090;28;20031;-68
2021/03/14 06:22:27;;;;;;;5.40;2.70;;;3.80;83.80;;;;;;5052165;28;20024;-67
2021/03/14 06:24:54;;;;;;;10.48;2.83;;;3.80;83.90;;;;;;5052299;28;20055;-68
2021/03/14 06:27:29;;;;;;;3.42;2.67;;;3.90;83.80;;;;;;5049125;28;20013;-67
2021/03/14 06:29:55;;;;;;;5.00;2.55;;;3.90;83.80;;;;;;5052205;28;20021;-67
2021/03/14 06:32:21;;;;;;;4.13;2.60;;;3.90;83.80;;;;;;5052648;28;20024;-67
2021/03/14 06:34:47;;;;;;;4.40;2.47;;;3.90;83.80;;;;;;5052432;28;20025;-67
2021/03/14 06:37:15;;;;;;;5.28;2.22;;;3.90;83.90;;;;;;5044358;28;20021;-67
2021/03/14 06:39:46;;;;;;;4.45;2.67;;;3.90;83.90;;;;;;5053252;28;20121;-67
2021/03/14 06:42:32;;;;;;;5.93;2.15;;;3.90;83.80;;;;;;5052242;28;20047;-67
2021/03/14 06:45:07;;;;;;;3.42;2.00;;;3.90;83.80;;;;;;5051453;28;20051;-67
2021/03/14 06:47:44;;;;;;;3.17;1.80;;;3.90;83.70;;;;;;5033089;28;20114;-67
2021/03/14 06:50:18;;;;;;;4.78;1.95;;;3.90;83.70;;;;;;5034070;28;20032;-67
2021/03/14 06:53:13;;;;;;;2.13;1.75;;;3.90;83.70;;;;;;5070903;28;20253;-67
2021/03/14 06:55:41;;;;;;;2.15;1.30;;;3.90;83.70;;;;;;5037872;28;20024;-68
2021/03/14 06:58:30;;;;;;;2.05;1.35;;;3.90;83.50;;;;;;5056288;28;20451;-67
2021/03/14 07:01:10;;;;;;;2.17;1.13;;;3.90;83.40;;;;;;5056356;28;20028;-67
2021/03/14 07:03:40;;;;;;;2.75;1.50;;;3.90;83.40;;;;;;5056613;28;20039;-67
2021/03/14 07:06:18;;;;;;;3.58;1.27;;;3.90;83.30;;;;;;5056316;28;20028;-67
2021/03/14 07:08:45;;;;;;;1.95;1.52;;;3.90;83.30;;;;;;5055678;28;20028;-68
2021/03/14 07:11:11;;;;;;;5.47;1.63;;;3.90;83.20;;;;;;5055982;28;20036;-67
2021/03/14 07:13:38;;;;;;;3.25;1.75;;;3.90;83.30;;;;;;5056189;28;20058;-67
2021/03/14 07:16:04;;;;;;;2.00;1.10;;;3.90;83.30;;;;;;5055939;28;20392;-67
2021/03/14 07:18:31;;;;;;;1.70;1.23;;;3.90;83.30;;;;;;5056798;28;20536;-67
2021/03/14 07:20:57;;;;;;;1.58;1.25;;;3.90;83.40;;;;;;5054057;28;20488;-67
2021/03/14 07:23:33;;;;;;;1.70;1.17;;;3.90;83.40;;;;;;5055801;28;20218;-67
2021/03/14 07:25:59;;;;;;;1.27;0.98;;;3.90;83.50;;;;;;5055673;28;20028;-67
2021/03/14 07:28:26;;;;;;;3.35;1.27;;;3.90;83.30;;;;;;5050259;28;20039;-67
2021/03/14 07:30:53;;;;;;;3.50;1.00;;;3.80;83.40;;;;;;5045410;28;20458;-67
2021/03/14 07:33:19;;;;;;;3.22;1.20;;;3.80;83.40;;;;;;5055627;28;20032;-67
2021/03/14 07:35:45;;;;;;;1.92;1.40;;;3.80;83.60;;;;;;5054409;28;20488;-67
2021/03/14 07:38:12;;;;;;;1.88;1.08;;;3.70;83.70;;;;;;5055279;28;20115;-68
2021/03/14 07:40:38;;;;;;;2.53;1.35;;;3.70;83.60;;;;;;5055581;28;20119;-67
2021/03/14 07:43:05;;;;;;;2.13;1.00;;;3.70;83.60;;;;;;5053454;28;20163;-67
2021/03/14 07:45:32;;;;;;;1.52;1.02;;;3.70;83.50;;;;;;5055090;28;20029;-67
2021/03/14 07:47:58;;;;;;;1.35;0.90;;;3.70;83.40;;;;;;5055579;28;20628;-67
2021/03/14 07:50:30;;;;;;;1.77;1.20;;;3.70;83.40;;;;;;5055242;28;20361;-67
2021/03/14 07:53:07;;;;;;;1.13;1.05;;;3.70;83.50;;;;;;5053135;28;20150;-68
2021/03/14 07:55:34;;;;;;;1.25;0.80;;;3.70;83.40;;;;;;5055307;28;20472;-67
2021/03/14 07:57:59;;;;;;;1.77;1.20;;;3.60;83.50;;;;;;5055726;28;20029;-70
2021/03/14 08:00:32;;;;;;;5.38;1.98;;;3.60;83.70;;;;;;5055935;28;20031;-67
2021/03/14 08:03:00;;;;;;;1.20;1.10;;;3.60;83.80;;;;;;5050903;28;20064;-67
2021/03/14 08:05:41;;;;;;;2.35;1.48;;;3.60;83.80;;;;;;5054445;28;20028;-67
2021/03/14 08:08:27;;;;;;;5.18;1.80;;;3.70;83.90;;;;;;5051066;28;20048;-67
2021/03/14 08:10:54;;;;;;;2.10;1.58;;;3.70;84.00;;;;;;5039250;28;20178;-67
2021/03/14 08:13:29;;;;;;;3.63;1.65;;;3.80;83.60;;;;;;5054661;28;20103;-67
2021/03/14 08:16:14;;;;;;;5.72;1.92;;;3.90;83.40;;;;;;5055781;28;20020;-67
2021/03/14 08:18:44;;;;;;;5.65;2.17;;;3.90;83.30;;;;;;5054050;28;20025;-67
2021/03/14 08:21:19;;;;;;;4.22;1.80;;;3.90;83.30;;;;;;5053645;28;20031;-67
2021/03/14 08:23:49;;;;;;;3.70;1.77;;;4.00;83.30;;;;;;5055272;28;20115;-67
2021/03/14 08:26:23;;;;;;;4.57;1.80;;;4.00;83.10;;;;;;5054918;28;20029;-67
2021/03/14 08:28:58;;;;;;;5.00;2.13;;;4.10;82.90;;;;;;5050414;28;20028;-67
2021/03/14 08:31:39;;;;;;;4.55;1.60;;;4.20;82.80;;;;;;5053868;28;20552;-67
2021/03/14 08:34:07;;;;;;;4.57;2.25;;;4.40;82.50;;;;;;5054608;28;20378;-67
2021/03/14 08:36:41;;;;;;;6.50;1.70;;;4.70;82.10;;;;;;5055556;28;20109;-67
2021/03/14 08:39:28;;;;;;;5.80;1.60;;;4.90;81.50;;;;;;5055416;28;20440;-68
2021/03/14 08:41:59;;;;;;;5.18;2.00;;;5.40;81.00;;;;;;5054433;28;20400;-67
2021/03/14 08:44:39;;;;;;;3.30;1.70;;;5.60;80.10;;;;;;5053837;28;20314;-67
2021/03/14 08:47:11;;;;;;;4.20;2.00;;;5.50;79.60;;;;;;5045746;28;20663;-67
2021/03/14 08:49:39;;;;;;;3.65;2.33;;;5.50;79.80;;;;;;5054667;28;20054;-68
2021/03/14 08:52:06;;;;;;;5.10;1.88;;;5.50;79.90;;;;;;5054231;28;20029;-67
2021/03/14 08:54:36;;;;;;;10.18;9.25;;;5.60;79.60;;;;;;5054561;28;20472;-67
2021/03/14 08:57:06;;;;;;;8.52;4.47;;;5.60;79.00;;;;;;5054501;28;20029;-67
2021/03/14 08:59:31;;;;;;;2.30;1.75;;;5.60;79.30;;;;;;5055185;28;20024;-67
2021/03/14 09:02:00;;;;;;;4.18;2.03;;;5.60;79.40;;;;;;5054526;28;20027;-67
2021/03/14 09:04:31;;;;;;;5.25;1.70;;;5.80;79.40;;;;;;5053701;28;20450;-68
2021/03/14 09:07:06;;;;;;;5.88;2.25;;;5.80;79.20;;;;;;5054434;28;20163;-67
2021/03/14 09:09:31;;;;;;;2.85;1.40;;;5.70;78.60;;;;;;5054380;28;20063;-68
2021/03/14 09:12:03;;;;;;;4.43;1.77;;;5.50;78.70;;;;;;5054323;28;20052;-67
2021/03/14 09:14:43;;;;;;;4.18;1.80;;;5.50;79.20;;;;;;5053559;28;20031;-67
2021/03/14 09:17:10;;;;;;;5.03;1.80;;;5.40;79.60;;;;;;5053506;28;20476;-68
2021/03/14 09:19:37;;;;;;;3.47;1.40;;;5.40;79.40;;;;;;5051043;28;20090;-68
2021/03/14 09:22:07;;;;;;;3.13;1.73;;;5.40;78.90;;;;;;5052924;28;20028;-67
2021/03/14 09:24:33;;;;;;;5.38;1.90;;;5.40;78.90;;;;;;5054604;28;20438;-67
2021/03/14 09:27:02;;;;;;;1.98;1.50;;;5.30;78.80;;;;;;5052227;28;20028;-67
2021/03/14 09:29:40;;;;;;;4.05;1.13;;;5.30;78.90;;;;;;5046095;28;20028;-67
2021/03/14 09:32:18;;;;;;;4.15;1.67;;;5.40;78.50;;;;;;5053500;28;20052;-67
2021/03/14 09:34:44;;;;;;;3.97;1.60;;;5.40;78.40;;;;;;5061800;28;20056;-67
2021/03/14 09:37:10;;;;;;;6.00;1.95;;;5.40;78.30;;;;;;5046979;28;20031;-67
2021/03/14 09:39:36;;;;;;;7.10;1.75;;;5.40;77.90;;;;;;5051005;28;20395;-68
2021/03/14 09:42:02;;;;;;;3.60;1.83;;;5.50;77.60;;;;;;5053677;28;20028;-68
2021/03/14 09:44:27;;;;;;;1.52;1.38;;;5.40;77.70;;;;;;5053217;28;20028;-67
2021/03/14 09:46:58;;;;;;;2.90;1.30;;;5.40;78.10;;;;;;5053513;28;20399;-68
2021/03/14 09:49:24;;;;;;;6.28;2.08;;;5.50;77.70;;;;;;5053810;28;20378;-68
2021/03/14 09:51:54;;;;;;;3.33;1.58;;;5.60;77.80;;;;;;5070811;28;20032;-68
2021/03/14 09:54:20;;;;;;;1.63;1.10;;;5.60;77.50;;;;;;5052980;28;20028;-69
2021/03/14 09:56:56;;;;;;;4.63;1.30;;;5.70;77.20;;;;;;5042526;28;20028;-68
2021/03/14 09:59:24;;;;;;;4.15;1.38;;;5.70;77.40;;;;;;5047762;28;20043;-68
2021/03/14 10:01:51;;;;;;;5.53;1.45;;;5.80;77.40;;;;;;5053390;28;20063;-67
2021/03/14 10:04:18;;;;;;;3.70;1.20;;;5.80;77.50;;;;;;5052903;28;20074;-67
2021/03/14 10:06:44;;;;;;;5.65;1.60;;;5.80;77.40;;;;;;5053576;28;20676;-67
2021/03/14 10:09:20;;;;;;;3.95;1.30;;;5.90;77.60;;;;;;5052681;28;20108;-67
2021/03/14 10:11:47;;;;;;;6.95;1.30;;;5.90;77.30;;;;;;5052138;28;20033;-68
2021/03/14 10:14:23;;;;;;;4.15;1.60;;;6.00;76.80;;;;;;5051839;28;20442;-68
2021/03/14 10:16:49;;;;;;;6.20;1.50;;;6.00;76.20;;;;;;5046272;28;20053;-68
2021/03/14 10:19:16;;;;;;;5.80;1.63;;;6.10;75.60;;;;;;5051746;28;20024;-68
2021/03/14 10:21:46;;;;;;;2.75;1.20;;;6.20;75.60;;;;;;5053125;28;20032;-68
2021/03/14 10:24:20;;;;;;;3.75;1.70;;;6.40;75.60;;;;;;5052607;28;20024;-67
2021/03/14 10:27:10;;;;;;;4.40;1.20;;;6.50;75.60;;;;;;5046237;28;20124;-67
2021/03/14 10:29:39;;;;;;;6.57;1.63;;;6.60;74.50;;;;;;5047529;28;20132;-67
2021/03/14 10:32:27;;;;;;;3.33;1.38;;;6.60;75.30;;;;;;5045514;28;20082;-68
2021/03/14 10:34:56;;;;;;;4.82;1.48;;;6.60;74.90;;;;;;5048949;28;20389;-68
2021/03/14 10:37:34;;;;;;;5.55;1.48;;;6.60;73.50;;;;;;5053382;28;20036;-68
2021/03/14 10:40:06;;;;;;;4.35;1.58;;;6.40;73.40;;;;;;5043193;28;20366;-69
2021/03/14 10:42:36;;;;;;;4.68;2.10;;;6.40;73.60;;;;;;5071211;28;20069;-68
2021/03/14 10:45:16;;;;;;;3.88;1.75;;;6.30;72.90;;;;;;5051662;28;20062;-68
2021/03/14 10:47:43;;;;;;;5.03;1.20;;;6.30;73.30;;;;;;5051865;28;20032;-68
2021/03/14 10:50:16;;;;;;;6.03;1.40;;;6.30;73.40;;;;;;5052222;28;20017;-68
2021/03/14 10:52:42;;;;;;;7.28;2.13;;;6.20;73.80;;;;;;5051611;28;20085;-68
2021/03/14 10:55:29;;;;;;;5.60;1.42;;;6.20;72.90;;;;;;5050544;28;20070;-68
2021/03/14 10:58:05;;;;;;;8.30;1.75;;;6.20;72.40;;;;;;5052784;28;20034;-68
2021/03/14 11:00:31;;;;;;;3.40;1.23;;;6.20;72.60;;;;;;5053148;28;20028;-69
2021/03/14 11:02:59;;;;;;;5.85;1.63;;;6.20;72.90;;;;;;5052572;28;20028;-68
2021/03/14 11:05:25;;;;;;;8.85;1.48;;;6.30;72.50;;;;;;5046816;28;20076;-69
2021/03/14 11:08:01;;;;;;;5.63;2.25;;;6.50;71.30;;;;;;5051567;28;20087;-67
2021/03/14 11:10:27;;;;;;;1.42;1.00;;;6.50;70.20;;;;;;5053284;28;20048;-67
2021/03/14 11:12:53;;;;;;;3.58;1.10;;;6.50;70.90;;;;;;5051608;28;20469;-67
2021/03/14 11:15:33;;;;;;;2.15;1.30;;;6.50;70.90;;;;;;5048448;28;20028;-69
2021/03/14 11:18:02;;;;;;;2.42;1.40;;;6.60;71.40;;;;;;5049557;28;20027;-69
2021/03/14 11:20:28;;;;;;;2.95;1.25;;;6.60;70.40;;;;;;5052800;28;20032;-68
2021/03/14 11:22:56;;;;;;;6.75;1.40;;;6.70;70.20;;;;;;5052511;28;20099;-68
2021/03/14 11:25:23;;;;;;;5.05;1.42;;;6.70;69.90;;;;;;5052616;28;20024;-67
2021/03/14 11:27:51;;;;;;;2.75;1.02;;;6.60;70.50;;;;;;5052889;28;20055;-68
2021/03/14 11:30:22;;;;;;;4.13;1.20;;;6.60;70.60;;;;;;5052655;28;20031;-69
2021/03/14 11:32:48;;;;;;;4.80;1.27;;;6.70;70.70;;;;;;5050818;28;20498;-68
2021/03/14 11:35:14;;;;;;;5.45;1.17;;;6.80;70.20;;;;;;5043331;28;20021;-69
2021/03/14 11:37:40;;;;;;;3.00;1.08;;;6.80;69.10;;;;;;5049680;28;20062;-68
2021/03/14 11:40:08;;;;;;;3.97;1.00;;;6.90;69.30;;;;;;5052215;28;20028;-69
2021/03/14 11:42:35;;;;;;;3.63;1.15;;;6.90;69.50;;;;;;5054317;28;20029;-69
2021/03/14 11:45:02;;;;;;;3.53;1.23;;;7.00;69.10;;;;;;5055085;28;20024;-68
2021/03/14 11:47:28;;;;;;;3.67;1.00;;;7.00;68.80;;;;;;5074138;28;20020;-69
2021/03/14 11:49:54;;;;;;;2.53;1.10;;;7.00;68.40;;;;;;5054004;28;20051;-69
2021/03/14 11:52:20;;;;;;;3.70;1.10;;;6.90;68.20;;;;;;5069806;28;20388;-70
2021/03/14 11:54:46;;;;;;;4.40;0.90;;;6.90;68.70;;;;;;5051798;28;20544;-69
2021/03/14 11:57:12;;;;;;;6.20;1.25;;;6.80;67.10;;;;;;5037916;28;20162;-69
2021/03/14 11:59:38;;;;;;;1.85;1.00;;;6.70;68.10;;;;;;5047439;28;20074;-69
2021/03/14 12:02:05;;;;;;;2.80;1.20;;;6.70;68.50;;;;;;5056182;28;20024;-69
2021/03/14 12:04:31;;;;;;;4.60;1.08;;;6.70;67.70;;;;;;5048041;28;20029;-69
2021/03/14 12:06:57;;;;;;;11.80;3.65;;;6.80;68.00;;;;;;5054633;28;20078;-69
2021/03/14 12:09:22;;;;;;;6.75;1.70;;;6.80;68.60;;;;;;5051320;28;20051;-69
2021/03/14 12:11:48;;;;;;;4.13;1.45;;;6.80;68.00;;;;;;5046977;28;20024;-69
2021/03/14 12:14:14;;;;;;;2.25;1.10;;;6.90;68.40;;;;;;5052698;28;20438;-69
2021/03/14 12:16:39;;;;;;;4.93;1.38;;;7.00;68.10;;;;;;5055147;28;20167;-69
2021/03/14 12:19:06;;;;;;;2.45;1.10;;;7.10;67.30;;;;;;5054089;28;20252;-69
2021/03/14 12:21:31;;;;;;;2.90;1.10;;;7.20;66.80;;;;;;5049372;28;20021;-70
2021/03/14 12:23:57;;;;;;;4.30;1.10;;;7.20;66.70;;;;;;5049171;28;20101;-70
2021/03/14 12:26:23;;;;;;;2.38;1.00;;;7.10;66.20;;;;;;5054455;28;20453;-70
2021/03/14 12:28:48;;;;;;;3.85;1.10;;;7.00;65.10;;;;;;5047093;28;20059;-69
2021/03/14 12:31:15;;;;;;;4.30;0.93;;;7.00;64.60;;;;;;5053218;28;20028;-69
2021/03/14 12:33:41;;;;;;;4.60;1.35;;;6.90;64.70;;;;;;5035395;28;20385;-67
2021/03/14 12:36:07;;;;;;;2.78;1.30;;;6.90;65.10;;;;;;5048508;22;20045;-67
2021/03/14 12:38:33;;;;;;;2.30;1.10;;;6.80;65.00;;;;;;5054913;28;20074;-66
2021/03/14 12:40:58;;;;;;;5.25;1.20;;;6.80;65.80;;;;;;5055187;28;20468;-67
2021/03/14 12:43:26;;;;;;;5.53;1.20;;;6.80;66.40;;;;;;5035296;28;20413;-67
2021/03/14 12:45:52;;;;;;;1.63;1.00;;;6.90;66.20;;;;;;5053654;28;20032;-66
2021/03/14 12:48:18;;;;;;;4.75;1.60;;;7.00;66.20;;;;;;5055628;28;20054;-66
2021/03/14 12:50:45;;;;;;;5.43;1.00;;;7.10;66.40;;;;;;5055441;28;20063;-67
2021/03/14 12:53:11;;;;;;;4.05;1.35;;;7.10;65.90;;;;;;5054332;28;20047;-66
2021/03/14 12:55:37;;;;;;;3.03;1.27;;;7.00;66.20;;;;;;5054441;28;20024;-66
2021/03/14 12:58:03;;;;;;;5.65;1.10;;;7.00;66.10;;;;;;5054726;28;20028;-67
2021/03/14 13:00:29;;;;;;;1.25;1.05;;;7.00;66.30;;;;;;5052056;28;20704;-66
2021/03/14 13:02:55;;;;;;;3.78;1.40;;;6.90;66.70;;;;;;5037778;28;20143;-66
2021/03/14 13:05:21;;;;;;;4.78;1.13;;;6.90;66.50;;;;;;5036710;28;20108;-67
2021/03/14 13:07:47;;;;;;;4.00;0.82;;;6.90;66.80;;;;;;5047812;28;20025;-66
2021/03/14 13:10:14;;;;;;;3.00;1.50;;;6.90;66.40;;;;;;5054353;28;20542;-66